createdAt,value
2018-02-07T18:09:06.407Z,58.40
2018-02-07T18:11:35.679Z,51.90
2018-02-07T18:14:03.948Z,51.90
2018-02-07T18:16:31.566Z,49.80
2018-02-07T18:18:59.112Z,48.40
2018-02-07T18:21:27.782Z,45.80
2018-02-07T18:23:55.772Z,45.80
2018-02-07T18:26:24.359Z,44.30
2018-02-07T18:28:52.236Z,44.40
2018-02-07T18:31:19.746Z,43.80
2018-02-07T18:33:48.012Z,47.00
2018-02-07T18:36:16.284Z,47.60
2018-02-07T18:38:43.881Z,47.60
2018-02-07T18:41:11.472Z,49.50
2018-02-07T18:43:40.466Z,49.50
2018-02-07T18:46:08.038Z,49.60
2018-02-07T18:48:35.521Z,49.90
2018-02-07T18:51:03.789Z,50.10
2018-02-07T18:53:32.059Z,50.20
2018-02-07T18:55:59.576Z,50.20
2018-02-07T18:58:27.081Z,50.30
2018-02-07T19:00:54.676Z,50.90
2018-02-07T19:03:22.250Z,49.90
2018-02-07T19:05:49.752Z,49.40
2018-02-07T19:08:17.260Z,50.10
2018-02-07T19:10:44.800Z,49.80
2018-02-07T19:13:13.101Z,46.90
2018-02-07T19:15:40.697Z,46.80
2018-02-07T19:18:08.257Z,48.80
2018-02-07T19:20:35.747Z,46.20
2018-02-07T19:23:03.242Z,46.50
2018-02-07T19:25:31.037Z,47.60
2018-02-07T19:27:58.529Z,45.50
2018-02-07T19:30:26.060Z,43.00
2018-02-07T19:32:53.635Z,41.10
2018-02-07T19:35:21.253Z,39.50
2018-02-07T19:37:48.756Z,38.40
2018-02-07T19:40:17.014Z,36.40
2018-02-07T19:42:45.770Z,36.40
2018-02-07T19:45:13.285Z,35.70
2018-02-07T19:47:41.590Z,34.40
2018-02-07T19:50:09.557Z,34.40
2018-02-07T19:52:37.179Z,33.90
2018-02-07T19:55:05.499Z,33.20
2018-02-07T19:57:33.034Z,33.10
2018-02-07T20:00:01.298Z,32.40
2018-02-07T20:02:29.547Z,32.10
2018-02-07T20:04:57.028Z,32.00
2018-02-07T20:07:24.549Z,31.80
2018-02-07T20:09:52.059Z,31.40
2018-02-07T20:12:19.582Z,31.20
2018-02-07T20:14:47.863Z,31.30
2018-02-07T20:17:16.121Z,30.60
2018-02-07T20:19:43.657Z,30.30
2018-02-07T20:22:11.156Z,30.10
2018-02-07T20:24:39.520Z,29.90
2018-02-07T20:27:07.111Z,29.90
2018-02-07T20:29:34.605Z,30.20
2018-02-07T20:32:02.120Z,34.00
2018-02-07T20:34:30.361Z,38.30
2018-02-07T20:36:57.943Z,38.20
2018-02-07T20:39:25.477Z,37.50
2018-02-07T20:41:53.274Z,38.50
2018-02-07T20:44:20.741Z,39.60
2018-02-07T20:46:48.235Z,38.20
2018-02-07T20:49:15.731Z,36.60
2018-02-07T20:51:43.977Z,37.00
2018-02-07T20:54:11.614Z,37.00
2018-02-07T20:56:39.153Z,37.50
2018-02-07T20:59:06.684Z,38.10
2018-02-07T21:01:34.173Z,38.80
2018-02-07T21:04:01.713Z,39.40
2018-02-07T21:06:30.023Z,39.90
2018-02-07T21:08:57.555Z,40.30
2018-02-07T21:11:25.068Z,40.80
2018-02-07T21:13:52.642Z,41.20
2018-02-07T21:16:20.134Z,41.60
2018-02-07T21:18:47.628Z,41.90
2018-02-07T21:21:15.580Z,42.30
2018-02-07T21:23:43.081Z,42.70
2018-02-07T21:26:11.396Z,43.90
2018-02-07T21:28:39.682Z,43.60
2018-02-07T21:31:07.286Z,43.60
2018-02-07T21:33:35.554Z,44.30
2018-02-07T21:36:03.387Z,44.20
2018-02-07T21:38:30.905Z,44.50
2018-02-07T21:40:59.273Z,45.00
2018-02-07T21:43:26.814Z,44.80
2018-02-07T21:45:54.338Z,45.10
2018-02-07T21:48:21.839Z,45.40
2018-02-07T21:50:49.706Z,45.50
2018-02-07T21:53:17.457Z,45.70
2018-02-07T21:55:45.015Z,45.90
2018-02-07T21:58:12.627Z,46.00
2018-02-07T22:00:40.203Z,46.20
2018-02-07T22:03:07.695Z,46.30
2018-02-07T22:05:35.533Z,46.50
2018-02-07T22:08:03.076Z,46.60
2018-02-07T22:10:30.599Z,46.70
2018-02-07T22:12:58.842Z,46.90
2018-02-07T22:15:26.490Z,46.90
2018-02-07T22:17:53.940Z,47.00
2018-02-07T22:20:21.915Z,47.20
2018-02-07T22:22:49.617Z,47.30
2018-02-07T22:25:17.344Z,47.30
2018-02-07T22:27:45.194Z,47.90
2018-02-07T22:30:13.061Z,47.60
2018-02-07T22:32:40.618Z,47.50
2018-02-07T22:35:08.488Z,47.70
2018-02-07T22:37:37.085Z,47.80
2018-02-07T22:40:04.564Z,47.80
2018-02-07T22:42:32.038Z,47.90
2018-02-07T22:45:00.325Z,48.00
2018-02-07T22:47:28.646Z,47.90
2018-02-07T22:49:56.366Z,47.90
2018-02-07T22:52:24.177Z,47.80
2018-02-07T22:54:51.812Z,47.90
2018-02-07T22:57:19.451Z,48.00
2018-02-07T22:59:47.784Z,47.90
2018-02-07T23:02:15.274Z,47.90
2018-02-07T23:04:43.515Z,48.00
2018-02-07T23:07:11.010Z,48.00
2018-02-07T23:09:39.374Z,48.20
2018-02-07T23:12:06.890Z,48.10
2018-02-07T23:14:34.478Z,48.10
2018-02-07T23:17:02.039Z,48.30
2018-02-07T23:19:30.333Z,48.30
2018-02-07T23:21:58.586Z,48.30
2018-02-07T23:24:26.140Z,48.20
2018-02-07T23:26:53.697Z,48.40
2018-02-07T23:29:21.197Z,48.50
2018-02-07T23:31:48.853Z,48.50
2018-02-07T23:34:17.153Z,48.60
2018-02-07T23:36:44.713Z,48.60
2018-02-07T23:39:12.991Z,48.80
2018-02-07T23:41:40.489Z,48.70
2018-02-07T23:44:07.983Z,48.80
2018-02-07T23:46:35.470Z,48.80
2018-02-07T23:49:02.969Z,48.80
2018-02-07T23:51:30.966Z,48.90
2018-02-07T23:53:59.382Z,49.00
2018-02-07T23:56:27.032Z,49.00
2018-02-07T23:58:54.724Z,49.10
